sensor_id;sensor_type;location;lat;lon;timestamp;pressure;altitude;pressure_sealevel;temperature;humidity
4449;BME280;2237;51.870;6.160;2023-06-24T00:02:15;102265.44;;;22.95;100.00
4449;BME280;2237;51.870;6.160;2023-06-24T00:04:42;102276.06;;;22.95;100.00
4449;BME280;2237;51.870;6.160;2023-06-24T00:07:08;102269.06;;;22.93;100.00
4449;BME280;2237;51.870;6.160;2023-06-24T00:09:35;102268.91;;;22.96;100.00
4449;BME280;2237;51.870;6.160;2023-06-24T00:12:02;102271.34;;;23.00;100.00
4449;BME280;2237;51.870;6.160;2023-06-24T00:14:28;102274.06;;;22.99;100.00
4449;BME280;2237;51.870;6.160;2023-06-24T00:16:55;102276.59;;;22.85;100.00
4449;BME280;2237;51.870;6.160;2023-06-24T00:19:26;102267.59;;;22.70;100.00
4449;BME280;2237;51.870;6.160;2023-06-24T00:21:53;102272.13;;;22.68;100.00
4449;BME280;2237;51.870;6.160;2023-06-24T00:24:20;102272.75;;;22.73;100.00
4449;BME280;2237;51.870;6.160;2023-06-24T00:26:52;102267.53;;;22.72;100.00
4449;BME280;2237;51.870;6.160;2023-06-24T00:29:19;102271.34;;;22.66;100.00
4449;BME280;2237;51.870;6.160;2023-06-24T00:31:45;102278.94;;;22.55;100.00
4449;BME280;2237;51.870;6.160;2023-06-24T00:34:12;102274.38;;;22.40;100.00
4449;BME280;2237;51.870;6.160;2023-06-24T00:36:38;102278.84;;;22.21;100.00
4449;BME280;2237;51.870;6.160;2023-06-24T00:39:05;102283.31;;;22.02;100.00
4449;BME280;2237;51.870;6.160;2023-06-24T00:41:33;102283.88;;;21.89;100.00
4449;BME280;2237;51.870;6.160;2023-06-24T00:44:00;102277.81;;;21.86;100.00
4449;BME280;2237;51.870;6.160;2023-06-24T00:46:28;102286.00;;;21.81;100.00
4449;BME280;2237;51.870;6.160;2023-06-24T00:48:55;102283.00;;;21.89;100.00
4449;BME280;2237;51.870;6.160;2023-06-24T00:51:22;102281.53;;;22.02;100.00
4449;BME280;2237;51.870;6.160;2023-06-24T00:53:58;102282.75;;;22.14;100.00
4449;BME280;2237;51.870;6.160;2023-06-24T00:56:30;102284.97;;;22.23;100.00
4449;BME280;2237;51.870;6.160;2023-06-24T00:58:58;102286.47;;;22.10;100.00
4449;BME280;2237;51.870;6.160;2023-06-24T01:01:28;102277.22;;;22.00;100.00
4449;BME280;2237;51.870;6.160;2023-06-24T01:04:02;102278.91;;;22.01;100.00
4449;BME280;2237;51.870;6.160;2023-06-24T01:06:29;102279.59;;;22.06;100.00
4449;BME280;2237;51.870;6.160;2023-06-24T01:08:57;102279.41;;;22.09;100.00
4449;BME280;2237;51.870;6.160;2023-06-24T01:11:24;102282.16;;;22.07;100.00
4449;BME280;2237;51.870;6.160;2023-06-24T01:13:50;102286.09;;;21.99;100.00
4449;BME280;2237;51.870;6.160;2023-06-24T01:16:28;102272.97;;;21.95;100.00
4449;BME280;2237;51.870;6.160;2023-06-24T01:19:05;102271.91;;;22.00;100.00
4449;BME280;2237;51.870;6.160;2023-06-24T01:32:31;102272.56;;;22.05;100.00
4449;BME280;2237;51.870;6.160;2023-06-24T01:35:11;102273.28;;;22.08;100.00
4449;BME280;2237;51.870;6.160;2023-06-24T01:37:51;102271.63;;;22.06;100.00
4449;BME280;2237;51.870;6.160;2023-06-24T01:40:26;102268.16;;;22.04;100.00
4449;BME280;2237;51.870;6.160;2023-06-24T01:42:54;102275.25;;;22.03;100.00
4449;BME280;2237;51.870;6.160;2023-06-24T01:45:32;102266.25;;;22.07;100.00
4449;BME280;2237;51.870;6.160;2023-06-24T01:48:15;102259.06;;;22.09;100.00
4449;BME280;2237;51.870;6.160;2023-06-24T01:50:43;102249.25;;;22.11;100.00
4449;BME280;2237;51.870;6.160;2023-06-24T01:53:11;102261.06;;;22.04;100.00
4449;BME280;2237;51.870;6.160;2023-06-24T01:55:41;102257.50;;;22.05;100.00
4449;BME280;2237;51.870;6.160;2023-06-24T01:58:09;102259.44;;;22.02;100.00
4449;BME280;2237;51.870;6.160;2023-06-24T02:00:38;102255.91;;;22.01;100.00
4449;BME280;2237;51.870;6.160;2023-06-24T02:03:06;102264.00;;;21.98;100.00
4449;BME280;2237;51.870;6.160;2023-06-24T02:05:34;102252.69;;;21.94;100.00
4449;BME280;2237;51.870;6.160;2023-06-24T02:08:03;102260.63;;;21.94;100.00
4449;BME280;2237;51.870;6.160;2023-06-24T02:10:30;102259.81;;;21.94;100.00
4449;BME280;2237;51.870;6.160;2023-06-24T02:12:58;102252.75;;;21.93;100.00
4449;BME280;2237;51.870;6.160;2023-06-24T02:15:26;102251.56;;;21.80;100.00
4449;BME280;2237;51.870;6.160;2023-06-24T02:17:54;102256.31;;;21.73;100.00
4449;BME280;2237;51.870;6.160;2023-06-24T02:20:23;102254.81;;;21.68;100.00
4449;BME280;2237;51.870;6.160;2023-06-24T02:22:54;102256.59;;;21.67;100.00
4449;BME280;2237;51.870;6.160;2023-06-24T02:25:21;102260.72;;;21.54;100.00
4449;BME280;2237;51.870;6.160;2023-06-24T02:27:48;102260.75;;;21.34;100.00
4449;BME280;2237;51.870;6.160;2023-06-24T02:30:16;102268.44;;;21.20;100.00
4449;BME280;2237;51.870;6.160;2023-06-24T02:32:42;102255.13;;;21.01;100.00
4449;BME280;2237;51.870;6.160;2023-06-24T02:35:09;102282.63;;;20.55;100.00
4449;BME280;2237;51.870;6.160;2023-06-24T02:37:35;102282.09;;;20.24;100.00
4449;BME280;2237;51.870;6.160;2023-06-24T02:40:02;102272.00;;;20.35;100.00
4449;BME280;2237;51.870;6.160;2023-06-24T02:42:31;102282.63;;;20.55;100.00
4449;BME280;2237;51.870;6.160;2023-06-24T02:44:57;102270.94;;;20.61;100.00
4449;BME280;2237;51.870;6.160;2023-06-24T02:47:24;102265.88;;;20.76;100.00
4449;BME280;2237;51.870;6.160;2023-06-24T02:49:53;102255.03;;;20.82;100.00
4449;BME280;2237;51.870;6.160;2023-06-24T02:52:20;102261.66;;;20.93;100.00
4449;BME280;2237;51.870;6.160;2023-06-24T02:54:46;102271.28;;;20.95;100.00
4449;BME280;2237;51.870;6.160;2023-06-24T02:57:13;102275.56;;;20.98;100.00
4449;BME280;2237;51.870;6.160;2023-06-24T02:59:41;102272.09;;;20.96;100.00
4449;BME280;2237;51.870;6.160;2023-06-24T03:02:08;102276.56;;;20.95;100.00
4449;BME280;2237;51.870;6.160;2023-06-24T03:04:35;102273.97;;;20.94;100.00
4449;BME280;2237;51.870;6.160;2023-06-24T03:07:01;102283.66;;;20.95;100.00
4449;BME280;2237;51.870;6.160;2023-06-24T03:09:33;102281.88;;;20.95;100.00
4449;BME280;2237;51.870;6.160;2023-06-24T03:12:00;102277.53;;;20.93;100.00
4449;BME280;2237;51.870;6.160;2023-06-24T03:14:26;102269.78;;;20.88;100.00
4449;BME280;2237;51.870;6.160;2023-06-24T03:16:53;102279.22;;;20.95;100.00
4449;BME280;2237;51.870;6.160;2023-06-24T03:19:19;102283.66;;;20.95;100.00
4449;BME280;2237;51.870;6.160;2023-06-24T03:21:46;102280.88;;;20.98;100.00
4449;BME280;2237;51.870;6.160;2023-06-24T03:24:12;102276.44;;;20.98;100.00
4449;BME280;2237;51.870;6.160;2023-06-24T03:26:39;102281.75;;;20.98;100.00
4449;BME280;2237;51.870;6.160;2023-06-24T03:29:08;102278.28;;;20.96;100.00
4449;BME280;2237;51.870;6.160;2023-06-24T03:31:35;102274.88;;;20.93;100.00
4449;BME280;2237;51.870;6.160;2023-06-24T03:34:01;102269.59;;;20.93;100.00
4449;BME280;2237;51.870;6.160;2023-06-24T03:36:28;102280.13;;;20.94;100.00
4449;BME280;2237;51.870;6.160;2023-06-24T03:38:54;102281.78;;;20.97;100.00
4449;BME280;2237;51.870;6.160;2023-06-24T03:41:21;102282.66;;;20.97;100.00
4449;BME280;2237;51.870;6.160;2023-06-24T03:43:48;102280.06;;;20.96;100.00
4449;BME280;2237;51.870;6.160;2023-06-24T03:46:15;102288.88;;;20.96;100.00
4449;BME280;2237;51.870;6.160;2023-06-24T03:48:41;102275.84;;;20.92;100.00
4449;BME280;2237;51.870;6.160;2023-06-24T03:51:07;102278.41;;;20.93;100.00
4449;BME280;2237;51.870;6.160;2023-06-24T03:53:34;102282.84;;;20.93;100.00
4449;BME280;2237;51.870;6.160;2023-06-24T03:56:00;102282.00;;;20.92;100.00
4449;BME280;2237;51.870;6.160;2023-06-24T03:58:27;102281.25;;;20.89;100.00
4449;BME280;2237;51.870;6.160;2023-06-24T04:00:53;102277.81;;;20.87;100.00
4449;BME280;2237;51.870;6.160;2023-06-24T04:03:23;102280.34;;;20.90;100.00
4449;BME280;2237;51.870;6.160;2023-06-24T04:05:54;102289.88;;;20.94;100.00
4449;BME280;2237;51.870;6.160;2023-06-24T04:08:21;102280.00;;;20.97;100.00
4449;BME280;2237;51.870;6.160;2023-06-24T04:10:48;102279.78;;;21.02;100.00
4449;BME280;2237;51.870;6.160;2023-06-24T04:13:14;102281.44;;;21.04;100.00
4449;BME280;2237;51.870;6.160;2023-06-24T04:15:41;102275.19;;;21.07;100.00
4449;BME280;2237;51.870;6.160;2023-06-24T04:18:08;102272.72;;;21.02;100.00
4449;BME280;2237;51.870;6.160;2023-06-24T04:20:34;102271.06;;;21.00;100.00
4449;BME280;2237;51.870;6.160;2023-06-24T04:23:04;102273.34;;;21.09;100.00
4449;BME280;2237;51.870;6.160;2023-06-24T04:25:31;102277.53;;;21.14;100.00
4449;BME280;2237;51.870;6.160;2023-06-24T04:27:57;102281.69;;;21.20;100.00
4449;BME280;2237;51.870;6.160;2023-06-24T04:30:24;102273.56;;;21.24;100.00
4449;BME280;2237;51.870;6.160;2023-06-24T04:32:51;102283.09;;;21.28;100.00
4449;BME280;2237;51.870;6.160;2023-06-24T04:35:17;102278.44;;;21.33;100.00
4449;BME280;2237;51.870;6.160;2023-06-24T04:37:43;102281.78;;;21.38;100.00
4449;BME280;2237;51.870;6.160;2023-06-24T04:40:10;102282.47;;;21.42;100.00
4449;BME280;2237;51.870;6.160;2023-06-24T04:42:36;102283.19;;;21.46;100.00
4449;BME280;2237;51.870;6.160;2023-06-24T04:45:03;102279.53;;;21.48;100.00
4449;BME280;2237;51.870;6.160;2023-06-24T04:47:31;102284.56;;;21.54;100.00
4449;BME280;2237;51.870;6.160;2023-06-24T04:49:57;102280.88;;;21.58;100.00
4449;BME280;2237;51.870;6.160;2023-06-24T04:52:24;102282.38;;;21.64;100.00
4449;BME280;2237;51.870;6.160;2023-06-24T04:54:50;102272.78;;;21.61;100.00
4449;BME280;2237;51.870;6.160;2023-06-24T04:57:26;102271.91;;;21.61;100.00
4449;BME280;2237;51.870;6.160;2023-06-24T04:59:52;102268.63;;;21.56;100.00
4449;BME280;2237;51.870;6.160;2023-06-24T05:02:19;102265.25;;;21.52;100.00
4449;BME280;2237;51.870;6.160;2023-06-24T05:04:45;102272.31;;;21.52;100.00
4449;BME280;2237;51.870;6.160;2023-06-24T05:07:11;102272.41;;;21.50;100.00
4449;BME280;2237;51.870;6.160;2023-06-24T05:09:38;102275.19;;;21.47;100.00
4449;BME280;2237;51.870;6.160;2023-06-24T05:12:05;102284.00;;;21.48;100.00
4449;BME280;2237;51.870;6.160;2023-06-24T05:14:35;102274.88;;;21.34;100.00
4449;BME280;2237;51.870;6.160;2023-06-24T05:17:05;102274.59;;;21.40;100.00
4449;BME280;2237;51.870;6.160;2023-06-24T05:19:32;102280.31;;;21.31;100.00
4449;BME280;2237;51.870;6.160;2023-06-24T05:21:58;102279.03;;;21.40;100.00
4449;BME280;2237;51.870;6.160;2023-06-24T05:24:25;102283.34;;;21.42;100.00
4449;BME280;2237;51.870;6.160;2023-06-24T05:26:51;102289.22;;;21.49;100.00
4449;BME280;2237;51.870;6.160;2023-06-24T05:29:18;102287.44;;;21.50;100.00
4449;BME280;2237;51.870;6.160;2023-06-24T05:31:44;102281.38;;;21.48;100.00
4449;BME280;2237;51.870;6.160;2023-06-24T05:34:12;102278.91;;;21.43;100.00
4449;BME280;2237;51.870;6.160;2023-06-24T05:36:39;102277.75;;;21.49;100.00
4449;BME280;2237;51.870;6.160;2023-06-24T05:39:05;102287.75;;;21.62;100.00
4449;BME280;2237;51.870;6.160;2023-06-24T05:41:34;102286.50;;;21.71;100.00
4449;BME280;2237;51.870;6.160;2023-06-24T05:44:07;102282.84;;;21.73;100.00
4449;BME280;2237;51.870;6.160;2023-06-24T05:46:35;102284.41;;;21.77;100.00
4449;BME280;2237;51.870;6.160;2023-06-24T05:49:01;102292.31;;;21.79;100.00
4449;BME280;2237;51.870;6.160;2023-06-24T05:51:28;102293.22;;;21.78;100.00
4449;BME280;2237;51.870;6.160;2023-06-24T05:53:55;102298.13;;;21.87;100.00
4449;BME280;2237;51.870;6.160;2023-06-24T05:56:21;102292.56;;;21.93;100.00
4449;BME280;2237;51.870;6.160;2023-06-24T05:58:49;102297.22;;;21.88;100.00
4449;BME280;2237;51.870;6.160;2023-06-24T06:01:15;102295.13;;;21.94;100.00
4449;BME280;2237;51.870;6.160;2023-06-24T06:03:42;102300.88;;;22.04;100.00
4449;BME280;2237;51.870;6.160;2023-06-24T06:06:09;102301.50;;;22.09;100.00
4449;BME280;2237;51.870;6.160;2023-06-24T06:08:35;102309.13;;;22.17;100.00
4449;BME280;2237;51.870;6.160;2023-06-24T06:11:01;102310.06;;;22.16;100.00
4449;BME280;2237;51.870;6.160;2023-06-24T06:13:31;102306.41;;;22.18;100.00
4449;BME280;2237;51.870;6.160;2023-06-24T06:15:57;102309.91;;;22.19;100.00
4449;BME280;2237;51.870;6.160;2023-06-24T06:18:24;102318.00;;;22.16;100.00
4449;BME280;2237;51.870;6.160;2023-06-24T06:20:50;102313.50;;;21.99;100.00
4449;BME280;2237;51.870;6.160;2023-06-24T06:23:17;102314.78;;;21.90;99.86
4449;BME280;2237;51.870;6.160;2023-06-24T06:25:43;102316.16;;;21.99;100.00
4449;BME280;2237;51.870;6.160;2023-06-24T06:28:12;102309.84;;;22.02;100.00
4449;BME280;2237;51.870;6.160;2023-06-24T06:30:39;102316.88;;;22.03;100.00
4449;BME280;2237;51.870;6.160;2023-06-24T06:33:05;102314.59;;;22.14;100.00
4449;BME280;2237;51.870;6.160;2023-06-24T06:35:32;102318.44;;;22.07;100.00
4449;BME280;2237;51.870;6.160;2023-06-24T06:37:58;102311.34;;;22.07;100.00
4449;BME280;2237;51.870;6.160;2023-06-24T06:40:25;102312.44;;;22.22;100.00
4449;BME280;2237;51.870;6.160;2023-06-24T06:42:53;102314.50;;;22.34;100.00
4449;BME280;2237;51.870;6.160;2023-06-24T06:45:19;102308.09;;;22.38;100.00
4449;BME280;2237;51.870;6.160;2023-06-24T06:47:46;102315.00;;;22.42;100.00
4449;BME280;2237;51.870;6.160;2023-06-24T06:50:12;102312.81;;;22.50;100.00
4449;BME280;2237;51.870;6.160;2023-06-24T06:52:39;102308.81;;;22.41;100.00
4449;BME280;2237;51.870;6.160;2023-06-24T06:55:05;102314.81;;;22.64;100.00
4449;BME280;2237;51.870;6.160;2023-06-24T06:57:32;102312.97;;;22.47;100.00
4449;BME280;2237;51.870;6.160;2023-06-24T06:59:58;102312.63;;;22.55;100.00
4449;BME280;2237;51.870;6.160;2023-06-24T07:02:24;102315.63;;;22.66;100.00
4449;BME280;2237;51.870;6.160;2023-06-24T07:04:51;102317.53;;;22.81;100.00
4449;BME280;2237;51.870;6.160;2023-06-24T07:07:17;102317.44;;;22.82;100.00
4449;BME280;2237;51.870;6.160;2023-06-24T07:09:44;102323.94;;;22.77;100.00
4449;BME280;2237;51.870;6.160;2023-06-24T07:12:12;102319.38;;;22.79;100.00
4449;BME280;2237;51.870;6.160;2023-06-24T07:14:39;102329.41;;;22.91;100.00
4449;BME280;2237;51.870;6.160;2023-06-24T07:17:07;102325.44;;;22.99;100.00
4449;BME280;2237;51.870;6.160;2023-06-24T07:19:33;102325.50;;;22.81;100.00
4449;BME280;2237;51.870;6.160;2023-06-24T07:22:00;102327.63;;;22.91;100.00
4449;BME280;2237;51.870;6.160;2023-06-24T07:24:26;102324.19;;;22.89;100.00
4449;BME280;2237;51.870;6.160;2023-06-24T07:26:53;102327.06;;;23.02;100.00
4449;BME280;2237;51.870;6.160;2023-06-24T07:29:19;102338.16;;;22.93;100.00
4449;BME280;2237;51.870;6.160;2023-06-24T07:31:45;102334.38;;;22.98;100.00
4449;BME280;2237;51.870;6.160;2023-06-24T07:34:12;102332.94;;;23.08;100.00
4449;BME280;2237;51.870;6.160;2023-06-24T07:36:38;102341.94;;;23.23;100.00
4449;BME280;2237;51.870;6.160;2023-06-24T07:39:05;102337.50;;;23.41;98.75
4449;BME280;2237;51.870;6.160;2023-06-24T07:41:32;102346.41;;;23.40;97.53
4449;BME280;2237;51.870;6.160;2023-06-24T07:43:58;102333.13;;;23.40;97.63
4449;BME280;2237;51.870;6.160;2023-06-24T07:46:25;102339.44;;;23.54;97.50
4449;BME280;2237;51.870;6.160;2023-06-24T07:48:54;102343.22;;;23.33;98.73
4449;BME280;2237;51.870;6.160;2023-06-24T07:51:20;102348.91;;;23.43;98.71
4449;BME280;2237;51.870;6.160;2023-06-24T07:53:46;102348.38;;;23.53;98.68
4449;BME280;2237;51.870;6.160;2023-06-24T07:56:13;102344.06;;;23.68;96.63
4449;BME280;2237;51.870;6.160;2023-06-24T07:58:39;102343.53;;;23.77;97.55
4449;BME280;2237;51.870;6.160;2023-06-24T08:01:06;102348.38;;;23.86;96.80
4449;BME280;2237;51.870;6.160;2023-06-24T08:03:33;102345.13;;;23.81;93.75
4449;BME280;2237;51.870;6.160;2023-06-24T08:06:00;102348.25;;;23.72;90.76
4449;BME280;2237;51.870;6.160;2023-06-24T08:08:27;102353.50;;;23.74;90.37
4449;BME280;2237;51.870;6.160;2023-06-24T08:10:53;102348.47;;;23.85;88.35
4449;BME280;2237;51.870;6.160;2023-06-24T08:13:20;102344.47;;;23.93;83.33
4449;BME280;2237;51.870;6.160;2023-06-24T08:15:46;102343.97;;;24.02;79.98
4449;BME280;2237;51.870;6.160;2023-06-24T08:18:13;102344.13;;;23.99;80.49
4449;BME280;2237;51.870;6.160;2023-06-24T08:20:39;102345.91;;;24.16;82.31
4449;BME280;2237;51.870;6.160;2023-06-24T08:23:06;102334.47;;;24.30;82.18
4449;BME280;2237;51.870;6.160;2023-06-24T08:25:32;102339.72;;;24.31;79.60
4449;BME280;2237;51.870;6.160;2023-06-24T08:27:59;102325.88;;;24.25;80.80
4449;BME280;2237;51.870;6.160;2023-06-24T08:30:26;102331.97;;;24.27;82.29
4449;BME280;2237;51.870;6.160;2023-06-24T08:32:52;102325.16;;;24.05;78.03
4449;BME280;2237;51.870;6.160;2023-06-24T08:35:19;102328.34;;;24.12;77.32
4449;BME280;2237;51.870;6.160;2023-06-24T08:37:45;102328.03;;;24.34;74.66
4449;BME280;2237;51.870;6.160;2023-06-24T08:40:12;102335.09;;;24.35;75.80
4449;BME280;2237;51.870;6.160;2023-06-24T08:42:38;102327.34;;;24.46;75.94
4449;BME280;2237;51.870;6.160;2023-06-24T08:45:05;102320.56;;;24.40;75.18
4449;BME280;2237;51.870;6.160;2023-06-24T08:47:33;102313.44;;;24.41;77.40
4449;BME280;2237;51.870;6.160;2023-06-24T08:50:11;102324.06;;;24.56;77.08
4449;BME280;2237;51.870;6.160;2023-06-24T08:52:42;102321.44;;;24.41;76.29
4449;BME280;2237;51.870;6.160;2023-06-24T08:55:13;102325.97;;;24.54;79.08
4449;BME280;2237;51.870;6.160;2023-06-24T08:57:42;102322.53;;;24.84;78.10
4449;BME280;2237;51.870;6.160;2023-06-24T09:00:09;102313.38;;;24.88;73.75
4449;BME280;2237;51.870;6.160;2023-06-24T09:02:37;102308.91;;;24.88;72.51
4449;BME280;2237;51.870;6.160;2023-06-24T09:05:07;102316.97;;;25.02;73.23
4449;BME280;2237;51.870;6.160;2023-06-24T09:07:34;102321.63;;;24.99;73.83
4449;BME280;2237;51.870;6.160;2023-06-24T09:10:00;102323.84;;;25.06;63.09
4449;BME280;2237;51.870;6.160;2023-06-24T09:12:27;102319.47;;;25.19;61.99
4449;BME280;2237;51.870;6.160;2023-06-24T09:14:57;102312.44;;;25.18;62.10
4449;BME280;2237;51.870;6.160;2023-06-24T09:17:23;102306.94;;;25.21;62.45
4449;BME280;2237;51.870;6.160;2023-06-24T09:19:50;102312.63;;;25.15;62.18
4449;BME280;2237;51.870;6.160;2023-06-24T09:22:17;102307.03;;;25.34;64.53
4449;BME280;2237;51.870;6.160;2023-06-24T09:24:48;102314.28;;;25.46;62.16
4449;BME280;2237;51.870;6.160;2023-06-24T09:27:15;102311.22;;;25.54;60.22
4449;BME280;2237;51.870;6.160;2023-06-24T09:29:43;102304.22;;;25.51;59.28
4449;BME280;2237;51.870;6.160;2023-06-24T09:32:12;102304.25;;;25.65;59.94
4449;BME280;2237;51.870;6.160;2023-06-24T09:34:39;102300.81;;;25.63;58.65
4449;BME280;2237;51.870;6.160;2023-06-24T09:37:06;102293.84;;;25.75;55.92
4449;BME280;2237;51.870;6.160;2023-06-24T09:39:39;102294.63;;;25.77;53.13
4449;BME280;2237;51.870;6.160;2023-06-24T09:42:06;102297.09;;;25.94;52.93
4449;BME280;2237;51.870;6.160;2023-06-24T09:44:34;102295.06;;;25.98;46.67
4449;BME280;2237;51.870;6.160;2023-06-24T09:47:00;102284.09;;;26.02;45.68
4449;BME280;2237;51.870;6.160;2023-06-24T09:49:27;102285.91;;;26.16;45.92
4449;BME280;2237;51.870;6.160;2023-06-24T09:51:55;102286.53;;;26.33;47.21
4449;BME280;2237;51.870;6.160;2023-06-24T09:54:25;102290.16;;;26.32;44.70
4449;BME280;2237;51.870;6.160;2023-06-24T09:56:59;102292.81;;;26.47;45.24
4449;BME280;2237;51.870;6.160;2023-06-24T09:59:26;102287.75;;;26.96;43.65
4449;BME280;2237;51.870;6.160;2023-06-24T10:01:54;102292.69;;;27.02;40.49
4449;BME280;2237;51.870;6.160;2023-06-24T10:04:21;102285.75;;;27.24;39.56
4449;BME280;2237;51.870;6.160;2023-06-24T10:06:51;102286.38;;;27.40;38.79
4449;BME280;2237;51.870;6.160;2023-06-24T10:09:17;102277.84;;;27.35;39.07
4449;BME280;2237;51.870;6.160;2023-06-24T10:11:46;102281.94;;;26.89;38.10
4449;BME280;2237;51.870;6.160;2023-06-24T10:14:16;102288.16;;;26.89;40.91
4449;BME280;2237;51.870;6.160;2023-06-24T10:16:44;102286.56;;;26.87;41.42
4449;BME280;2237;51.870;6.160;2023-06-24T10:19:18;102291.59;;;26.91;41.41
4449;BME280;2237;51.870;6.160;2023-06-24T10:21:53;102294.25;;;26.65;39.41
4449;BME280;2237;51.870;6.160;2023-06-24T10:24:32;102293.00;;;26.44;38.10
4449;BME280;2237;51.870;6.160;2023-06-24T10:29:38;102291.28;;;26.69;38.98
4449;BME280;2237;51.870;6.160;2023-06-24T10:32:06;102280.06;;;26.77;39.94
4449;BME280;2237;51.870;6.160;2023-06-24T10:34:47;102284.84;;;26.86;37.58
4449;BME280;2237;51.870;6.160;2023-06-24T10:37:20;102270.72;;;26.84;37.20
4449;BME280;2237;51.870;6.160;2023-06-24T10:44:55;102273.59;;;26.93;39.86
4449;BME280;2237;51.870;6.160;2023-06-24T10:47:22;102265.25;;;26.85;40.38
4449;BME280;2237;51.870;6.160;2023-06-24T10:49:49;102271.59;;;26.84;41.66
4449;BME280;2237;51.870;6.160;2023-06-24T10:52:18;102261.44;;;26.89;42.55
4449;BME280;2237;51.870;6.160;2023-06-24T10:54:47;102262.06;;;26.93;41.13
4449;BME280;2237;51.870;6.160;2023-06-24T10:57:14;102265.69;;;26.92;43.16
4449;BME280;2237;51.870;6.160;2023-06-24T10:59:42;102263.47;;;26.99;43.02
4449;BME280;2237;51.870;6.160;2023-06-24T11:02:09;102258.34;;;27.08;43.26
4449;BME280;2237;51.870;6.160;2023-06-24T11:04:50;102269.38;;;27.16;43.77
4449;BME280;2237;51.870;6.160;2023-06-24T11:07:21;102260.69;;;27.38;43.80
4449;BME280;2237;51.870;6.160;2023-06-24T11:09:49;102255.47;;;27.36;44.04
4449;BME280;2237;51.870;6.160;2023-06-24T11:12:16;102257.53;;;27.45;44.85
4449;BME280;2237;51.870;6.160;2023-06-24T11:14:42;102258.97;;;27.37;43.16
4449;BME280;2237;51.870;6.160;2023-06-24T11:17:09;102251.41;;;27.56;43.57
4449;BME280;2237;51.870;6.160;2023-06-24T11:19:36;102250.34;;;27.59;43.38
4449;BME280;2237;51.870;6.160;2023-06-24T11:22:06;102246.66;;;27.72;43.05
4449;BME280;2237;51.870;6.160;2023-06-24T11:24:34;102251.50;;;27.80;43.92
4449;BME280;2237;51.870;6.160;2023-06-24T11:27:01;102251.41;;;27.69;43.22
4449;BME280;2237;51.870;6.160;2023-06-24T11:29:29;102249.25;;;27.74;43.44
4449;BME280;2237;51.870;6.160;2023-06-24T11:31:56;102248.31;;;27.62;43.18
4449;BME280;2237;51.870;6.160;2023-06-24T11:34:23;102246.28;;;27.66;41.42
4449;BME280;2237;51.870;6.160;2023-06-24T11:36:50;102241.53;;;27.69;42.14
4449;BME280;2237;51.870;6.160;2023-06-24T11:39:24;102242.09;;;27.98;41.28
4449;BME280;2237;51.870;6.160;2023-06-24T11:41:51;102239.78;;;28.06;41.88
4449;BME280;2237;51.870;6.160;2023-06-24T11:44:21;102223.34;;;27.98;42.20
4449;BME280;2237;51.870;6.160;2023-06-24T11:46:49;102229.34;;;28.01;44.67
4449;BME280;2237;51.870;6.160;2023-06-24T11:49:16;102237.22;;;27.92;41.82
4449;BME280;2237;51.870;6.160;2023-06-24T11:51:47;102243.78;;;27.75;42.80
4449;BME280;2237;51.870;6.160;2023-06-24T11:54:16;102234.91;;;27.98;41.41
4449;BME280;2237;51.870;6.160;2023-06-24T11:56:44;102231.38;;;28.11;41.58
4449;BME280;2237;51.870;6.160;2023-06-24T11:59:23;102225.63;;;28.04;41.93
4449;BME280;2237;51.870;6.160;2023-06-24T12:01:57;102230.56;;;27.97;42.65
4449;BME280;2237;51.870;6.160;2023-06-24T12:04:28;102221.22;;;28.03;41.97
4449;BME280;2237;51.870;6.160;2023-06-24T12:06:55;102211.31;;;28.40;42.39
4449;BME280;2237;51.870;6.160;2023-06-24T12:09:22;102211.78;;;28.34;41.15
4449;BME280;2237;51.870;6.160;2023-06-24T12:11:48;102207.44;;;28.44;42.25
4449;BME280;2237;51.870;6.160;2023-06-24T12:14:15;102207.34;;;28.56;41.19
4449;BME280;2237;51.870;6.160;2023-06-24T12:16:42;102207.59;;;28.53;40.34
4449;BME280;2237;51.870;6.160;2023-06-24T12:19:08;102209.00;;;28.35;41.12
4449;BME280;2237;51.870;6.160;2023-06-24T12:21:35;102202.25;;;28.30;41.29
4449;BME280;2237;51.870;6.160;2023-06-24T12:24:02;102204.81;;;28.55;41.81
4449;BME280;2237;51.870;6.160;2023-06-24T12:26:29;102201.13;;;28.91;41.60
4449;BME280;2237;51.870;6.160;2023-06-24T12:28:55;102202.16;;;29.01;40.04
4449;BME280;2237;51.870;6.160;2023-06-24T12:31:24;102199.59;;;29.10;39.02
4449;BME280;2237;51.870;6.160;2023-06-24T12:33:51;102198.53;;;29.24;38.74
4449;BME280;2237;51.870;6.160;2023-06-24T12:36:18;102199.88;;;29.41;40.11
4449;BME280;2237;51.870;6.160;2023-06-24T12:38:45;102198.91;;;29.53;40.03
4449;BME280;2237;51.870;6.160;2023-06-24T12:41:11;102196.59;;;29.48;39.35
4449;BME280;2237;51.870;6.160;2023-06-24T12:43:38;102193.53;;;29.31;38.55
4449;BME280;2237;51.870;6.160;2023-06-24T12:46:04;102200.88;;;29.51;40.25
4449;BME280;2237;51.870;6.160;2023-06-24T12:48:30;102189.13;;;29.63;39.86
4449;BME280;2237;51.870;6.160;2023-06-24T12:50:57;102188.66;;;29.47;38.67
4449;BME280;2237;51.870;6.160;2023-06-24T12:53:23;102181.69;;;29.55;38.54
4449;BME280;2237;51.870;6.160;2023-06-24T12:55:49;102188.13;;;29.97;38.49
4449;BME280;2237;51.870;6.160;2023-06-24T12:58:22;102180.28;;;30.05;38.83
4449;BME280;2237;51.870;6.160;2023-06-24T13:00:49;102188.41;;;29.83;37.67
4449;BME280;2237;51.870;6.160;2023-06-24T13:03:15;102186.94;;;29.68;37.38
4449;BME280;2237;51.870;6.160;2023-06-24T13:05:41;102188.59;;;30.02;38.19
4449;BME280;2237;51.870;6.160;2023-06-24T13:08:08;102184.34;;;29.89;37.79
4449;BME280;2237;51.870;6.160;2023-06-24T13:10:37;102184.34;;;29.89;36.37
4449;BME280;2237;51.870;6.160;2023-06-24T13:13:05;102183.59;;;29.98;36.52
4449;BME280;2237;51.870;6.160;2023-06-24T13:15:31;102185.16;;;30.43;36.59
4449;BME280;2237;51.870;6.160;2023-06-24T13:17:58;102179.47;;;30.78;35.91
4449;BME280;2237;51.870;6.160;2023-06-24T13:20:24;102185.81;;;30.77;35.34
4449;BME280;2237;51.870;6.160;2023-06-24T13:22:51;102179.78;;;30.85;35.75
4449;BME280;2237;51.870;6.160;2023-06-24T13:25:18;102172.81;;;31.03;37.46
4449;BME280;2237;51.870;6.160;2023-06-24T13:27:45;102179.06;;;31.33;35.87